Time;durP1;ratioP1;P1;durP2;ratioP2;P2;SDS_P1;SDS_P2;PMS_P1;PMS_P2;Temp;Humidity;BMP_temperature;BMP_pressure;BME280_temperature;BME280_humidity;BME280_pressure;Samples;Min_cycle;Max_cycle;Signal;HPM_P1;HPM_P2
2021/07/04 00:00:26;;;;;;;9.63;7.03;;;;;;;22.29;60.59;101165.66;4976219;28;114265;-71
2021/07/04 00:02:57;;;;;;;10.50;7.13;;;;;;;22.27;60.40;101161.41;4978870;28;113628;-71
2021/07/04 00:05:29;;;;;;;9.80;6.93;;;;;;;22.26;60.47;101159.69;4979911;28;124677;-71
2021/07/04 00:07:56;;;;;;;9.63;7.40;;;;;;;22.25;60.63;101164.22;4979834;28;124112;-70
2021/07/04 00:10:30;;;;;;;10.52;7.78;;;;;;;22.24;60.72;101157.06;4993643;28;114210;-70
2021/07/04 00:12:58;;;;;;;9.68;7.45;;;;;;;22.22;60.59;101153.66;4980888;28;113250;-71
2021/07/04 00:15:28;;;;;;;10.20;7.70;;;;;;;22.19;60.64;101147.69;4980540;28;124648;-70
2021/07/04 00:17:55;;;;;;;9.90;7.63;;;;;;;22.16;60.73;101148.81;4975834;28;123311;-70
2021/07/04 00:20:23;;;;;;;10.15;7.45;;;;;;;22.14;60.80;101140.00;4975183;28;113274;-70
2021/07/04 00:22:54;;;;;;;11.70;7.40;;;;;;;22.10;60.88;101127.78;4977671;28;114150;-70
2021/07/04 00:25:25;;;;;;;9.88;7.22;;;;;;;22.07;60.87;101133.47;4975819;28;123938;-70
2021/07/04 00:27:54;;;;;;;9.35;6.72;;;;;;;22.05;60.99;101119.25;4977693;28;122704;-69
2021/07/04 00:30:21;;;;;;;9.88;7.32;;;;;;;22.01;60.98;101120.53;4987120;28;115148;-70
2021/07/04 00:32:49;;;;;;;10.30;6.60;;;;;;;21.95;60.96;101120.06;4974476;28;115388;-70
2021/07/04 00:35:19;;;;;;;7.80;6.28;;;;;;;21.91;61.08;101126.72;4977687;28;124381;-70
2021/07/04 00:37:47;;;;;;;9.63;6.75;;;;;;;21.88;61.26;101121.59;4959833;28;123778;-70
2021/07/04 00:40:15;;;;;;;9.00;6.05;;;;;;;21.86;61.39;101118.19;4978556;28;115150;-70
2021/07/04 00:42:43;;;;;;;8.48;6.30;;;;;;;21.87;61.37;101121.72;4981013;28;113061;-70
2021/07/04 00:45:18;;;;;;;8.35;6.15;;;;;;;21.87;61.35;101128.00;4977423;28;123335;-70
2021/07/04 00:47:48;;;;;;;8.70;6.57;;;;;;;21.90;61.36;101121.47;4974779;28;123200;-70
2021/07/04 00:50:19;;;;;;;7.70;5.82;;;;;;;21.91;61.36;101124.03;4972912;28;113480;-70
2021/07/04 00:52:47;;;;;;;8.93;6.05;;;;;;;21.89;61.37;101126.03;4977626;28;113439;-70
2021/07/04 00:55:16;;;;;;;8.23;6.13;;;;;;;21.89;61.43;101131.41;4978441;28;123273;-70
2021/07/04 00:57:47;;;;;;;8.85;6.65;;;;;;;21.86;61.46;101131.66;4987543;28;122909;-70
2021/07/04 01:00:19;;;;;;;9.15;6.63;;;;;;;21.83;61.40;101126.56;4978905;28;113710;-70
2021/07/04 01:02:48;;;;;;;7.90;5.88;;;;;;;21.82;61.45;101119.47;4989398;28;113146;-70
2021/07/04 01:05:18;;;;;;;7.93;6.10;;;;;;;21.80;61.55;101116.03;4976347;28;123663;-70
2021/07/04 01:07:47;;;;;;;8.35;6.03;;;;;;;21.79;61.57;101108.94;4987697;28;124954;-70
2021/07/04 01:10:18;;;;;;;8.70;6.03;;;;;;;21.77;61.72;101108.22;4982440;28;114387;-70
2021/07/04 01:12:53;;;;;;;8.05;6.03;;;;;;;21.78;61.79;101112.63;4978646;28;113495;-70
2021/07/04 01:15:25;;;;;;;9.30;6.97;;;;;;;21.78;61.83;101096.47;4974910;28;123254;-70
2021/07/04 01:18:00;;;;;;;11.88;6.35;;;;;;;21.78;61.79;101096.47;4977914;28;124183;-70
2021/07/04 01:20:30;;;;;;;9.48;7.05;;;;;;;21.78;61.75;101093.75;4971665;28;114410;-70
2021/07/04 01:23:10;;;;;;;9.40;6.72;;;;;;;21.75;61.85;101092.16;4978298;28;114737;-70
2021/07/04 01:25:43;;;;;;;9.48;7.15;;;;;;;21.76;61.78;101087.66;4977585;28;123425;-71
2021/07/04 01:28:12;;;;;;;11.07;7.43;;;;;;;21.75;61.92;101086.78;4987300;28;122407;-71
2021/07/04 01:30:43;;;;;;;8.25;6.82;;;;;;;21.74;61.88;101078.84;4976545;28;114124;-70
2021/07/04 01:33:11;;;;;;;11.07;8.30;;;;;;;21.72;61.80;101080.81;4988684;28;113774;-70
2021/07/04 01:35:38;;;;;;;9.73;7.45;;;;;;;21.69;62.04;101081.09;4972841;28;124285;-70
2021/07/04 01:38:05;;;;;;;10.20;7.53;;;;;;;21.67;62.04;101077.69;4973129;28;123200;-70
2021/07/04 01:40:34;;;;;;;11.07;7.85;;;;;;;21.66;62.23;101067.88;4988686;28;114570;-71
2021/07/04 01:43:02;;;;;;;10.82;8.05;;;;;;;21.64;62.22;101067.16;4975660;28;113818;-70
2021/07/04 01:45:36;;;;;;;10.52;7.70;;;;;;;21.62;62.17;101063.75;4991073;28;124434;-70
2021/07/04 01:48:06;;;;;;;10.27;7.32;;;;;;;21.61;62.33;101056.66;4976052;28;123570;-70
2021/07/04 01:50:40;;;;;;;11.82;8.10;;;;;;;21.58;62.28;101053.22;4995526;28;112160;-70
2021/07/04 01:53:08;;;;;;;10.80;7.95;;;;;;;21.58;62.35;101047.00;4974623;28;113615;-71
2021/07/04 01:55:36;;;;;;;12.25;8.48;;;;;;;21.56;62.42;101047.13;4977944;28;123034;-72
2021/07/04 01:58:03;;;;;;;10.93;8.15;;;;;;;21.55;62.29;101048.13;4975030;28;123925;-71
2021/07/04 02:00:40;;;;;;;13.65;8.80;;;;;;;21.53;62.62;101044.72;4974522;28;114711;-71
2021/07/04 02:03:10;;;;;;;11.38;8.52;;;;;;;21.51;62.54;101044.00;4973377;28;114297;-71
2021/07/04 02:05:46;;;;;;;10.68;8.10;;;;;;;21.47;62.41;101031.75;4973058;28;123057;-71
2021/07/04 02:08:22;;;;;;;11.23;8.25;;;;;;;21.45;62.55;101035.59;4974801;28;123023;-71
2021/07/04 02:10:52;;;;;;;11.25;8.65;;;;;;;21.44;62.69;101047.34;4977488;28;115504;-71
2021/07/04 02:13:20;;;;;;;12.10;8.70;;;;;;;21.45;62.56;101047.22;4973487;28;114224;-70
2021/07/04 02:15:52;;;;;;;11.95;8.50;;;;;;;21.47;62.47;101050.63;4976582;28;123285;-71
2021/07/04 02:18:42;;;;;;;12.43;8.63;;;;;;;21.47;62.40;101045.22;4972932;28;122970;-71
2021/07/04 02:21:28;;;;;;;12.05;8.80;;;;;;;21.48;62.34;101049.66;4973336;28;115076;-71
2021/07/04 02:24:18;;;;;;;11.65;8.52;;;;;;;21.47;62.18;101039.84;4973906;28;113525;-71
2021/07/04 02:26:59;;;;;;;11.25;8.05;;;;;;;21.47;61.94;101045.22;4972543;28;124642;-71
2021/07/04 02:29:38;;;;;;;10.85;8.07;;;;;;;21.46;61.82;101051.63;4978623;28;122093;-71
2021/07/04 02:32:08;;;;;;;12.02;8.35;;;;;;;21.43;61.99;101049.16;4969484;28;114016;-71
2021/07/04 02:34:35;;;;;;;11.05;8.00;;;;;;;21.40;61.77;101054.84;4975061;28;113238;-71
2021/07/04 02:37:04;;;;;;;10.50;8.20;;;;;;;21.38;61.64;101054.13;4970523;28;123568;-71
2021/07/04 02:39:42;;;;;;;11.00;8.45;;;;;;;21.36;61.63;101058.75;4973512;28;123907;-71
2021/07/04 02:42:10;;;;;;;11.20;8.32;;;;;;;21.33;61.79;101067.13;4984513;28;112512;-71
2021/07/04 02:44:37;;;;;;;10.60;7.90;;;;;;;21.31;61.83;101061.88;4975489;28;113221;-70
2021/07/04 02:47:06;;;;;;;9.20;6.97;;;;;;;21.29;61.81;101058.47;4968324;28;123934;-71
2021/07/04 02:49:33;;;;;;;10.50;7.82;;;;;;;21.30;61.83;101064.69;4973120;28;122217;-70
2021/07/04 02:52:04;;;;;;;10.32;7.85;;;;;;;21.28;61.92;101061.28;4967954;28;115572;-71
2021/07/04 02:54:31;;;;;;;10.40;8.02;;;;;;;21.27;62.08;101071.22;4974225;28;113748;-71
2021/07/04 02:57:10;;;;;;;12.55;8.50;;;;;;;21.28;61.96;101082.84;4971711;28;123290;-71
2021/07/04 02:59:40;;;;;;;11.88;8.43;;;;;;;21.29;62.12;101076.47;4971392;28;122835;-71
2021/07/04 03:02:08;;;;;;;11.57;8.50;;;;;;;21.30;62.07;101075.47;4958135;28;113792;-71
2021/07/04 03:04:37;;;;;;;10.23;8.20;;;;;;;21.32;61.97;101068.09;4970272;28;113896;-71
2021/07/04 03:07:05;;;;;;;10.65;8.10;;;;;;;21.33;62.07;101064.44;4989991;28;124610;-71
2021/07/04 03:09:36;;;;;;;12.98;8.48;;;;;;;21.33;62.22;101067.13;4973535;28;123912;-71
2021/07/04 03:12:04;;;;;;;11.45;8.68;;;;;;;21.34;62.30;101069.69;4969956;28;114522;-71
2021/07/04 03:14:33;;;;;;;12.07;8.60;;;;;;;21.35;62.43;101067.84;4972503;28;113849;-71
2021/07/04 03:17:01;;;;;;;10.95;8.23;;;;;;;21.36;62.26;101064.16;4973204;28;123557;-71
2021/07/04 03:19:30;;;;;;;12.43;8.68;;;;;;;21.37;62.41;101063.19;4973629;28;123033;-71
2021/07/04 03:22:02;;;;;;;10.55;8.40;;;;;;;21.39;62.35;101053.13;4975851;28;114337;-71
2021/07/04 03:24:30;;;;;;;11.07;8.13;;;;;;;21.40;62.31;101065.63;4976191;28;113236;-71
2021/07/04 03:26:58;;;;;;;9.77;7.55;;;;;;;21.42;62.28;101052.84;4989304;28;123784;-71
2021/07/04 03:29:25;;;;;;;11.45;8.55;;;;;;;21.44;62.25;101056.31;4954654;28;123635;-71
2021/07/04 03:31:53;;;;;;;13.02;8.60;;;;;;;21.45;62.54;101058.00;4975227;28;114377;-71
2021/07/04 03:34:20;;;;;;;10.35;8.60;;;;;;;21.46;62.51;101057.00;4959425;28;113419;-71
2021/07/04 03:36:50;;;;;;;11.95;7.78;;;;;;;21.48;62.32;101057.72;4957553;28;125015;-71
2021/07/04 03:39:18;;;;;;;11.35;8.20;;;;;;;21.51;62.38;101057.47;4972483;28;124481;-71
2021/07/04 03:41:47;;;;;;;10.32;8.25;;;;;;;21.51;62.40;101062.00;4983573;28;112609;-71
2021/07/04 03:44:15;;;;;;;11.93;8.85;;;;;;;21.51;62.29;101057.47;4973744;28;114547;-71
2021/07/04 03:46:44;;;;;;;10.73;8.55;;;;;;;21.53;62.26;101066.28;4974833;28;124111;-71
2021/07/04 03:49:12;;;;;;;11.15;8.93;;;;;;;21.54;62.35;101062.56;4970015;28;123081;-71
2021/07/04 03:51:53;;;;;;;12.23;9.50;;;;;;;21.56;62.28;101071.38;4976251;28;114360;-71
2021/07/04 03:54:21;;;;;;;12.77;8.75;;;;;;;21.56;62.35;101063.28;4974686;28;114302;-71
2021/07/04 03:56:49;;;;;;;11.32;9.05;;;;;;;21.57;62.43;101070.41;4975493;28;123626;-71
2021/07/04 03:59:16;;;;;;;12.20;8.95;;;;;;;21.57;62.53;101058.78;4977864;28;124297;-71
2021/07/04 04:01:44;;;;;;;12.75;9.27;;;;;;;21.57;62.45;101067.72;4972299;28;114227;-71
2021/07/04 04:04:13;;;;;;;11.02;8.80;;;;;;;21.58;62.48;101074.78;4974277;28;114230;-71
2021/07/04 04:06:42;;;;;;;12.82;8.80;;;;;;;21.60;62.46;101071.13;4959119;28;123722;-71
2021/07/04 04:09:13;;;;;;;11.73;9.02;;;;;;;21.60;62.47;101076.50;4969856;28;123576;-71
2021/07/04 04:11:49;;;;;;;11.18;8.82;;;;;;;21.60;62.41;101065.72;4978481;28;114674;-71
2021/07/04 04:14:24;;;;;;;11.55;8.05;;;;;;;21.60;62.00;101071.13;4976374;28;112510;-71
2021/07/04 04:16:56;;;;;;;10.68;8.65;;;;;;;21.60;62.40;101060.34;4972674;28;125552;-71
2021/07/04 04:19:27;;;;;;;9.95;8.73;;;;;;;21.62;62.39;101063.75;4974557;28;123921;-71
2021/07/04 04:21:54;;;;;;;11.43;8.35;;;;;;;21.63;62.25;101068.16;4993257;28;113544;-71
2021/07/04 04:24:21;;;;;;;11.20;8.90;;;;;;;21.62;62.48;101063.75;4979916;28;112841;-71
2021/07/04 04:26:49;;;;;;;11.45;9.00;;;;;;;21.61;62.56;101070.13;4978089;28;123696;-71
2021/07/04 04:29:16;;;;;;;11.10;8.45;;;;;;;21.60;62.46;101065.72;4970065;28;123107;-71
2021/07/04 04:31:43;;;;;;;14.25;9.30;;;;;;;21.59;62.44;101070.28;4977573;28;114617;-71
2021/07/04 04:34:13;;;;;;;12.00;9.55;;;;;;;21.58;62.56;101068.56;4990647;28;113659;-71
2021/07/04 04:36:40;;;;;;;12.55;9.88;;;;;;;21.61;62.57;101067.44;4978931;28;124057;-71
2021/07/04 04:39:07;;;;;;;12.80;9.10;;;;;;;21.62;62.61;101058.34;4995006;28;123356;-71
2021/07/04 04:41:36;;;;;;;13.10;10.02;;;;;;;21.63;62.71;101063.63;4979600;28;115318;-71
2021/07/04 04:44:04;;;;;;;14.63;11.18;;;;;;;21.64;62.68;101056.38;4979397;28;115327;-71
2021/07/04 04:46:32;;;;;;;17.33;11.88;;;;;;;21.63;62.69;101060.06;4974092;28;121882;-71
2021/07/04 04:48:59;;;;;;;16.10;11.63;;;;;;;21.64;62.63;101056.38;4979057;28;123728;-71
2021/07/04 04:51:26;;;;;;;14.63;11.20;;;;;;;21.64;62.79;101053.69;4975576;28;115150;-71
2021/07/04 04:53:53;;;;;;;18.40;12.52;;;;;;;21.65;62.65;101052.69;4978322;28;113915;-71
2021/07/04 04:56:20;;;;;;;17.33;12.50;;;;;;;21.66;62.67;101054.38;4976758;28;124772;-71
2021/07/04 04:58:47;;;;;;;20.02;13.13;;;;;;;21.65;62.59;101053.53;4974630;28;124425;-71
2021/07/04 05:01:15;;;;;;;19.13;13.18;;;;;;;21.67;62.65;101046.19;4975663;28;114385;-71
2021/07/04 05:03:42;;;;;;;19.48;13.25;;;;;;;21.68;62.66;101052.41;4977288;28;114385;-71
2021/07/04 05:06:09;;;;;;;19.35;13.18;;;;;;;21.70;62.91;101045.03;4976595;28;123927;-71
2021/07/04 05:08:36;;;;;;;20.35;13.95;;;;;;;21.72;62.89;101035.84;4961102;28;122381;-71
2021/07/04 05:11:04;;;;;;;19.27;13.00;;;;;;;21.76;62.79;101044.50;4979827;28;113352;-71
2021/07/04 05:13:31;;;;;;;19.20;13.20;;;;;;;21.78;62.79;101037.13;4977314;28;114218;-71
2021/07/04 05:16:00;;;;;;;17.15;12.93;;;;;;;21.78;62.82;101034.44;4975240;28;122574;-71
2021/07/04 05:18:27;;;;;;;18.10;13.30;;;;;;;21.80;62.77;101048.63;4976032;28;123782;-71
2021/07/04 05:20:54;;;;;;;18.85;12.95;;;;;;;21.80;62.75;101051.34;4981779;28;113978;-71
2021/07/04 05:23:21;;;;;;;19.95;13.13;;;;;;;21.82;62.75;101049.34;4976332;28;114732;-71
2021/07/04 05:25:49;;;;;;;19.10;13.77;;;;;;;21.82;62.78;101049.34;4978131;28;124863;-71
2021/07/04 05:28:16;;;;;;;18.20;12.55;;;;;;;21.80;62.97;101040.53;4977175;28;123942;-71
2021/07/04 05:30:44;;;;;;;17.95;12.60;;;;;;;21.79;62.77;101036.13;4982683;28;115234;-71
2021/07/04 05:33:11;;;;;;;17.50;12.88;;;;;;;21.78;62.84;101037.13;4971482;28;114272;-71
2021/07/04 05:35:39;;;;;;;21.10;13.40;;;;;;;21.81;62.82;101034.16;4981296;28;124727;-70
2021/07/04 05:38:16;;;;;;;18.55;12.95;;;;;;;21.84;62.96;101031.19;4985640;28;124180;-70
2021/07/04 05:40:47;;;;;;;18.42;12.98;;;;;;;21.83;63.00;101024.09;4984260;28;114276;-70
2021/07/04 05:43:15;;;;;;;19.30;12.38;;;;;;;21.83;63.11;101029.50;4971709;28;112769;-69
2021/07/04 05:45:42;;;;;;;17.77;12.73;;;;;;;21.85;63.00;101038.28;4978259;28;124987;-70
2021/07/04 05:48:10;;;;;;;18.30;12.70;;;;;;;21.87;63.13;101030.91;4978276;28;123010;-69
2021/07/04 05:50:37;;;;;;;16.58;12.30;;;;;;;21.90;62.98;101030.63;4979459;28;114689;-69
2021/07/04 05:53:04;;;;;;;19.45;13.13;;;;;;;21.91;62.69;101032.34;4982867;28;113840;-70
2021/07/04 05:55:31;;;;;;;19.60;13.18;;;;;;;21.92;63.13;101028.63;4975910;28;123616;-69
2021/07/04 05:57:58;;;;;;;23.30;15.02;;;;;;;21.92;62.96;101031.34;4988009;28;124011;-69
2021/07/04 06:00:25;;;;;;;24.08;14.82;;;;;;;21.92;62.96;101028.63;4985999;28;114246;-69
2021/07/04 06:02:52;;;;;;;25.42;14.98;;;;;;;21.93;63.12;101024.97;4983460;28;112917;-69
2021/07/04 06:05:20;;;;;;;31.20;16.13;;;;;;;21.95;63.02;101022.97;4985882;28;124103;-70
2021/07/04 06:07:47;;;;;;;28.80;15.50;;;;;;;21.96;63.01;101026.53;4987397;28;124080;-70
2021/07/04 06:10:14;;;;;;;29.23;16.67;;;;;;;21.97;63.06;101026.38;4983263;28;114061;-69
2021/07/04 06:12:41;;;;;;;29.65;17.02;;;;;;;22.00;63.01;101024.41;4980000;28;113178;-71
2021/07/04 06:15:10;;;;;;;27.08;17.23;;;;;;;22.02;62.97;101022.41;4986478;28;124181;-70
2021/07/04 06:17:37;;;;;;;27.70;17.13;;;;;;;22.01;63.12;101020.72;4987806;28;124098;-71
2021/07/04 06:20:06;;;;;;;27.80;17.10;;;;;;;22.04;63.28;101015.91;4985039;28;115046;-70
2021/07/04 06:22:35;;;;;;;27.75;17.38;;;;;;;22.07;63.34;101020.16;4990452;28;114429;-70
2021/07/04 06:25:04;;;;;;;26.08;16.67;;;;;;;22.10;63.21;101020.75;4984729;28;123768;-70
2021/07/04 06:27:31;;;;;;;30.67;18.00;;;;;;;22.14;63.32;101018.63;4988882;28;124118;-68
2021/07/04 06:29:58;;;;;;;34.28;18.25;;;;;;;22.18;63.29;101022.72;4989467;28;113487;-68
2021/07/04 06:32:26;;;;;;;32.50;17.95;;;;;;;22.21;63.15;101017.06;4984662;28;113737;-69
2021/07/04 06:34:53;;;;;;;32.75;18.25;;;;;;;22.24;63.17;101016.75;4987700;28;123255;-69
2021/07/04 06:37:20;;;;;;;37.75;17.75;;;;;;;22.28;63.10;101020.94;4988137;28;124319;-70
2021/07/04 06:39:47;;;;;;;33.72;17.98;;;;;;;22.33;63.21;101015.13;4990157;28;114447;-69
2021/07/04 06:42:14;;;;;;;41.58;18.75;;;;;;;22.37;63.20;101021.06;4989072;28;114247;-69
2021/07/04 06:44:41;;;;;;;41.13;18.67;;;;;;;22.39;63.00;101013.69;4971867;28;123636;-69
2021/07/04 06:47:08;;;;;;;40.30;18.65;;;;;;;22.41;63.19;101014.41;4989556;28;124726;-69
2021/07/04 06:49:36;;;;;;;40.38;20.20;;;;;;;22.45;62.95;101023.91;4972208;28;113603;-70
2021/07/04 06:52:03;;;;;;;41.35;19.83;;;;;;;22.49;63.17;101019.94;4991493;28;114094;-69
2021/07/04 06:54:30;;;;;;;40.45;20.00;;;;;;;22.55;63.23;101019.38;4984292;28;123586;-69
2021/07/04 06:57:25;;;;;;;42.28;20.73;;;;;;;22.63;63.19;101015.97;4989983;28;123987;-69
2021/07/04 06:59:44;;;;;;;45.05;20.80;;;;;;;22.69;63.08;101009.97;4985564;28;113250;-70
2021/07/04 07:02:11;;;;;;;41.42;20.25;;;;;;;22.76;62.90;101004.88;4988078;28;114285;-70
2021/07/04 07:04:38;;;;;;;39.67;19.40;;;;;;;22.80;62.95;101003.56;4990149;28;124192;-70
2021/07/04 07:07:06;;;;;;;43.80;20.70;;;;;;;22.87;63.05;101007.41;4987176;28;123867;-69
2021/07/04 07:09:33;;;;;;;42.72;19.55;;;;;;;22.97;63.29;101002.81;4981691;28;115115;-69
2021/07/04 07:12:00;;;;;;;41.20;20.48;;;;;;;23.07;63.15;101000.97;4983224;28;114713;-70
2021/07/04 07:14:27;;;;;;;40.95;20.98;;;;;;;23.15;62.99;101004.78;4980882;28;123786;-71
2021/07/04 07:16:54;;;;;;;42.83;21.13;;;;;;;23.22;62.63;101000.50;4985757;28;123993;-72
2021/07/04 07:19:21;;;;;;;37.20;20.23;;;;;;;23.27;62.40;101004.47;4986141;28;114290;-69
2021/07/04 07:21:48;;;;;;;39.70;21.08;;;;;;;23.32;62.03;101006.75;4987730;28;114145;-71
2021/07/04 07:24:15;;;;;;;38.10;20.30;;;;;;;23.34;61.91;100985.81;4990281;28;124210;-71
2021/07/04 07:26:46;;;;;;;41.38;20.85;;;;;;;23.37;61.59;100980.09;4988848;28;124915;-71
2021/07/04 07:29:13;;;;;;;37.05;20.17;;;;;;;23.37;61.94;100985.50;4993268;28;114457;-70
2021/07/04 07:31:41;;;;;;;40.95;20.58;;;;;;;23.41;61.72;100989.59;4971857;28;112316;-71
2021/07/04 07:34:08;;;;;;;41.35;20.38;;;;;;;23.49;62.04;100986.19;4986792;28;124716;-70
2021/07/04 07:36:35;;;;;;;40.72;21.77;;;;;;;23.62;62.20;100991.22;4977794;28;124643;-70
2021/07/04 07:39:03;;;;;;;38.25;20.92;;;;;;;23.73;61.95;100988.28;4982941;28;114701;-70
2021/07/04 07:41:39;;;;;;;38.55;21.27;;;;;;;23.81;61.83;100991.16;4969438;28;113279;-71
2021/07/04 07:44:07;;;;;;;38.42;21.00;;;;;;;23.90;61.45;100994.78;4989487;28;124102;-71
2021/07/04 07:46:34;;;;;;;36.30;20.05;;;;;;;23.96;61.45;100998.72;4986123;28;123731;-71
2021/07/04 07:49:01;;;;;;;42.35;21.35;;;;;;;24.02;61.08;100992.72;4979000;28;114403;-71
2021/07/04 07:51:42;;;;;;;34.45;20.27;;;;;;;24.06;60.98;100988.69;4969531;28;117503;-70
2021/07/04 07:54:13;;;;;;;37.20;19.80;;;;;;;24.09;60.92;100993.78;4971279;28;124287;-71
2021/07/04 07:56:40;;;;;;;35.88;20.20;;;;;;;24.14;60.98;100991.47;4990467;28;124373;-70
2021/07/04 07:59:07;;;;;;;38.40;21.02;;;;;;;24.19;60.67;101000.00;4989772;28;115164;-71
2021/07/04 08:01:34;;;;;;;41.03;21.77;;;;;;;24.24;60.59;101004.94;4970964;28;114141;-71
2021/07/04 08:04:07;;;;;;;38.15;21.20;;;;;;;24.34;60.90;100997.59;4956888;28;123486;-71
2021/07/04 08:06:34;;;;;;;36.35;21.05;;;;;;;24.48;61.06;100998.91;4979374;28;123121;-70
2021/07/04 08:09:04;;;;;;;39.60;20.77;;;;;;;24.64;60.87;100993.66;4975181;28;113867;-71
2021/07/04 08:11:43;;;;;;;37.38;21.58;;;;;;;24.80;60.43;100992.06;4971214;28;113591;-71
2021/07/04 08:14:11;;;;;;;37.75;21.92;;;;;;;24.95;60.30;100985.06;4959622;28;123334;-71
2021/07/04 08:16:44;;;;;;;35.47;22.40;;;;;;;25.10;60.19;100976.34;4980205;28;124666;-71
2021/07/04 08:19:11;;;;;;;38.60;21.30;;;;;;;25.25;60.31;100981.00;4987296;28;114094;-71
2021/07/04 08:21:39;;;;;;;36.83;21.95;;;;;;;25.40;59.77;100973.13;4984915;28;113554;-72
2021/07/04 08:24:06;;;;;;;33.10;21.15;;;;;;;25.50;59.52;100972.16;4992272;28;124069;-71
2021/07/04 08:26:33;;;;;;;37.97;21.83;;;;;;;25.56;58.94;100971.47;4994224;28;125270;-71
2021/07/04 08:29:01;;;;;;;35.03;20.83;;;;;;;25.61;58.83;100964.56;4993539;28;113367;-71
2021/07/04 08:31:28;;;;;;;35.88;22.00;;;;;;;25.64;58.09;100968.81;4995682;28;113731;-71
2021/07/04 08:33:55;;;;;;;35.35;21.88;;;;;;;25.65;58.32;100959.66;4995324;28;123892;-71
2021/07/04 08:36:25;;;;;;;35.95;22.38;;;;;;;25.68;58.18;100962.03;4993717;28;123494;-72
2021/07/04 08:38:52;;;;;;;36.28;21.50;;;;;;;25.76;57.72;100961.22;4994241;28;114922;-70
2021/07/04 08:41:19;;;;;;;36.97;22.02;;;;;;;25.82;57.85;100965.97;4978242;28;113090;-70
2021/07/04 08:43:46;;;;;;;36.45;21.98;;;;;;;25.92;58.14;100971.28;4984768;28;124901;-69
2021/07/04 08:46:14;;;;;;;40.83;23.80;;;;;;;25.99;57.98;100962.31;4984948;28;123876;-69
2021/07/04 08:48:41;;;;;;;44.30;25.50;;;;;;;26.04;57.25;100964.53;4986057;28;115479;-70
2021/07/04 08:51:10;;;;;;;41.00;23.00;;;;;;;26.05;57.26;100959.94;4988577;28;115255;-70
2021/07/04 08:53:38;;;;;;;45.47;24.45;;;;;;;26.05;57.01;100960.81;4996151;28;124004;-70
2021/07/04 08:56:06;;;;;;;42.10;23.83;;;;;;;26.04;56.87;100964.53;4994827;28;122978;-70
2021/07/04 08:58:33;;;;;;;40.80;23.88;;;;;;;26.01;57.03;100954.00;4994592;28;114127;-70
2021/07/04 09:01:24;;;;;;;41.75;24.98;;;;;;;25.99;57.00;100956.03;4993984;28;113651;-70
2021/07/04 09:03:53;;;;;;;43.10;24.90;;;;;;;25.98;57.12;100959.78;4989369;28;124111;-71
2021/07/04 09:06:56;;;;;;;43.70;24.90;;;;;;;25.97;57.24;100963.50;4981222;28;122284;-70
2021/07/04 09:09:27;;;;;;;46.97;25.67;;;;;;;26.01;57.09;100959.41;4925157;28;115824;-70
2021/07/04 09:12:06;;;;;;;44.38;24.98;;;;;;;26.06;57.21;100962.50;4970134;28;114315;-71
2021/07/04 09:14:39;;;;;;;43.08;24.25;;;;;;;26.16;56.86;100957.75;4987135;28;123664;-70
2021/07/04 09:17:33;;;;;;;37.20;22.92;;;;;;;26.27;56.08;100953.00;4981241;28;123931;-71
2021/07/04 09:20:02;;;;;;;38.63;23.55;;;;;;;26.35;56.51;100947.56;4982269;28;114537;-70
2021/07/04 09:22:34;;;;;;;39.45;23.80;;;;;;;26.44;56.45;100945.72;4991549;28;114232;-70
2021/07/04 09:25:19;;;;;;;43.72;24.38;;;;;;;26.56;55.83;100947.91;4993868;28;124095;-71
2021/07/04 09:28:03;;;;;;;42.22;24.98;;;;;;;26.72;56.40;100951.66;4987357;28;123728;-71
2021/07/04 09:30:36;;;;;;;38.25;22.90;;;;;;;26.84;55.46;100947.53;4981382;28;114519;-72
2021/07/04 09:33:23;;;;;;;39.40;23.20;;;;;;;26.87;55.52;100939.03;4990706;28;113609;-71
2021/07/04 09:35:53;;;;;;;39.70;22.95;;;;;;;26.92;54.62;100928.50;4967166;28;123252;-71
2021/07/04 09:38:21;;;;;;;37.30;23.17;;;;;;;26.95;54.32;100914.53;4985301;28;123312;-71
2021/07/04 09:40:49;;;;;;;36.15;22.02;;;;;;;26.96;53.59;100915.41;4984357;28;114296;-71
2021/07/04 09:43:18;;;;;;;35.33;22.48;;;;;;;26.88;53.26;100912.69;4987997;28;114340;-72
2021/07/04 09:45:53;;;;;;;37.50;22.05;;;;;;;26.82;53.30;100908.81;4986608;28;123244;-71
2021/07/04 09:48:22;;;;;;;;;;;;;;;26.83;54.07;100905.09;4979674;28;123724;-71
2021/07/04 09:50:52;;;;;;;32.55;19.67;;;;;;;26.94;53.94;100907.44;4985039;28;114819;-71
2021/07/04 09:53:20;;;;;;;32.30;20.30;;;;;;;27.05;53.62;100905.34;4988756;28;113175;-71
2021/07/04 09:55:51;;;;;;;35.70;21.10;;;;;;;27.19;53.36;100915.50;4992722;28;123875;-71
2021/07/04 09:58:20;;;;;;;35.13;20.35;;;;;;;27.30;53.25;100906.97;4994144;28;124693;-71
2021/07/04 10:00:47;;;;;;;34.58;20.35;;;;;;;27.42;53.01;100903.84;4992668;28;113563;-71
2021/07/04 10:03:21;;;;;;;37.40;22.58;;;;;;;27.53;53.25;100906.19;4987926;28;114148;-71
2021/07/04 10:05:54;;;;;;;37.00;23.00;;;;;;;27.61;52.65;100903.41;4991323;28;123612;-72
2021/07/04 10:08:30;;;;;;;40.35;23.90;;;;;;;27.67;52.11;100908.16;4987131;28;123955;-70
2021/07/04 10:11:12;;;;;;;38.00;24.02;;;;;;;27.64;52.32;100907.66;4990445;28;114327;-72
2021/07/04 10:13:47;;;;;;;37.47;22.52;;;;;;;27.63;52.22;100906.78;4990674;28;113148;-71
2021/07/04 10:16:17;;;;;;;41.33;23.38;;;;;;;27.68;52.48;100904.38;4986877;28;125523;-72
2021/07/04 10:18:47;;;;;;;37.10;22.20;;;;;;;27.74;51.80;100900.09;4989155;28;124484;-71
2021/07/04 10:21:17;;;;;;;38.95;23.67;;;;;;;27.76;51.58;100890.72;4989710;28;113736;-71
2021/07/04 10:23:51;;;;;;;32.83;21.20;;;;;;;27.81;51.38;100883.91;4994072;28;113982;-71
2021/07/04 10:26:19;;;;;;;35.58;21.80;;;;;;;27.84;51.12;100878.94;4977869;28;123694;-71
2021/07/04 10:28:46;;;;;;;33.78;21.52;;;;;;;27.80;50.87;100874.03;4987560;28;123964;-71
2021/07/04 10:31:18;;;;;;;34.92;20.90;;;;;;;27.83;51.28;100873.66;4986467;28;115188;-71
2021/07/04 10:33:46;;;;;;;34.25;21.50;;;;;;;27.92;51.60;100868.00;4980117;28;115061;-70
2021/07/04 10:36:20;;;;;;;36.13;21.42;;;;;;;28.02;51.56;100862.31;4963608;28;123786;-72
2021/07/04 10:38:49;;;;;;;35.43;21.60;;;;;;;28.13;51.52;100859.16;4985546;28;123513;-72
2021/07/04 10:41:45;;;;;;;33.25;20.42;;;;;;;28.24;50.75;100855.13;4988333;28;113803;-70
2021/07/04 10:44:12;;;;;;;33.90;20.55;;;;;;;28.31;50.82;100849.78;4971122;28;113484;-70
2021/07/04 10:46:46;;;;;;;33.50;21.13;;;;;;;28.37;50.49;100843.59;4964397;28;121951;-70
2021/07/04 10:49:21;;;;;;;32.72;20.50;;;;;;;28.41;50.58;100844.91;4979046;28;123658;-70
2021/07/04 10:52:01;;;;;;;33.67;20.08;;;;;;;28.46;50.54;100834.31;4981803;28;114589;-69
2021/07/04 10:54:44;;;;;;;34.50;20.25;;;;;;;28.49;50.10;100842.09;4979636;28;113700;-69
2021/07/04 10:57:22;;;;;;;32.13;20.25;;;;;;;28.50;49.88;100826.59;4988916;28;123646;-70
2021/07/04 11:00:12;;;;;;;32.38;20.15;;;;;;;28.52;50.54;100825.41;4986434;28;97179;-72
2021/07/04 11:02:54;;;;;;;34.28;20.52;;;;;;;28.57;50.31;100826.72;4983949;28;114435;-69
2021/07/04 11:05:37;;;;;;;32.83;19.85;;;;;;;28.61;49.89;100819.88;4980514;28;113268;-70
2021/07/04 11:08:12;;;;;;;34.13;19.80;;;;;;;28.63;50.09;100817.78;4972805;28;124131;-70
2021/07/04 11:10:50;;;;;;;31.40;19.83;;;;;;;28.64;49.63;100811.31;4982928;28;122248;-71
2021/07/04 11:13:17;;;;;;;33.00;19.45;;;;;;;28.65;49.28;100807.53;4975739;28;112215;-70
2021/07/04 11:15:50;;;;;;;33.80;20.15;;;;;;;28.64;48.78;100800.41;4977165;28;112884;-70
2021/07/04 11:18:20;;;;;;;32.53;19.48;;;;;;;28.62;49.01;100797.03;4974166;28;124047;-70
2021/07/04 11:20:49;;;;;;;33.25;20.20;;;;;;;28.65;48.62;100797.50;4973538;28;123510;-70